Time;durP1;ratioP1;P1;durP2;ratioP2;P2;SDS_P1;SDS_P2;PMS_P1;PMS_P2;Temp;Humidity;BMP_temperature;BMP_pressure;BME280_temperature;BME280_humidity;BME280_pressure;Samples;Min_cycle;Max_cycle;Signal;HPM_P1;HPM_P2
2023/05/31 00:00:53;;;;;;;13.08;9.85;;;28.20;99.90;;;;;;1868088;76;21633;-83
2023/05/31 00:03:24;;;;;;;13.85;10.00;;;28.20;99.90;;;;;;1882912;75;21194;-81
2023/05/31 00:05:56;;;;;;;17.57;9.98;;;28.20;99.90;;;;;;1910368;74;21694;-82
2023/05/31 00:08:28;;;;;;;12.80;8.98;;;28.30;99.90;;;;;;1900374;74;21038;-78
2023/05/31 00:10:59;;;;;;;16.97;9.75;;;28.30;99.90;;;;;;1915990;74;21173;-80
2023/05/31 00:13:31;;;;;;;15.80;9.50;;;28.40;99.90;;;;;;1911335;74;21587;-79
2023/05/31 00:16:03;;;;;;;16.07;9.48;;;28.40;99.90;;;;;;1913297;73;21208;-81
2023/05/31 00:18:35;;;;;;;11.43;9.15;;;28.40;99.90;;;;;;1906332;74;21139;-82
2023/05/31 00:21:07;;;;;;;15.10;9.50;;;28.50;99.90;;;;;;1918534;74;21116;-81
2023/05/31 00:23:38;;;;;;;12.33;9.65;;;28.50;99.90;;;;;;1906038;74;21131;-78
2023/05/31 00:26:09;;;;;;;13.48;9.15;;;28.60;99.90;;;;;;1919706;74;21250;-81
2023/05/31 00:28:41;;;;;;;12.40;8.88;;;28.70;99.90;;;;;;1886738;75;21185;-81
2023/05/31 00:31:13;;;;;;;15.40;8.63;;;28.80;99.90;;;;;;1899308;75;21250;-84
2023/05/31 00:33:48;;;;;;;13.28;9.68;;;28.80;99.90;;;;;;1885102;74;21209;-81
2023/05/31 00:36:19;;;;;;;14.53;9.68;;;28.80;99.90;;;;;;1886850;74;21175;-80
2023/05/31 00:38:51;;;;;;;14.93;10.32;;;28.90;99.90;;;;;;1894569;75;21143;-82
2023/05/31 00:41:23;;;;;;;15.53;10.63;;;28.90;99.90;;;;;;1892280;74;21716;-82
2023/05/31 00:43:54;;;;;;;14.63;10.32;;;29.00;99.90;;;;;;1887638;75;21077;-83
2023/05/31 00:46:39;;;;;;;14.63;9.80;;;29.00;99.90;;;;;;1886259;75;21137;-77
2023/05/31 00:49:11;;;;;;;11.55;8.40;;;29.10;99.90;;;;;;1870539;75;21622;-75
2023/05/31 00:51:43;;;;;;;11.65;9.08;;;29.10;99.90;;;;;;1889362;75;21191;-76
2023/05/31 00:54:15;;;;;;;16.40;9.93;;;29.20;99.90;;;;;;1896125;75;21623;-77
2023/05/31 00:56:46;;;;;;;14.10;9.58;;;29.30;99.90;;;;;;1889371;75;21221;-76
2023/05/31 00:59:19;;;;;;;17.57;9.28;;;29.30;99.90;;;;;;1905613;75;21135;-84
2023/05/31 01:01:51;;;;;;;11.55;9.55;;;29.30;99.90;;;;;;1895297;75;21163;-84
2023/05/31 01:04:25;;;;;;;13.08;8.40;;;29.40;99.90;;;;;;1894795;75;21076;-84
2023/05/31 01:06:56;;;;;;;13.50;10.32;;;29.50;99.90;;;;;;1894045;75;21582;-84
2023/05/31 01:09:31;;;;;;;14.45;9.58;;;29.60;99.90;;;;;;1885101;75;21579;-83
2023/05/31 01:12:21;;;;;;;23.52;10.03;;;29.60;99.90;;;;;;1892954;75;21175;-83
2023/05/31 01:15:11;;;;;;;16.42;9.35;;;29.70;99.90;;;;;;1878410;75;21217;-84
2023/05/31 01:17:50;;;;;;;15.30;9.35;;;29.80;99.90;;;;;;1902965;75;21155;-84
2023/05/31 01:20:24;;;;;;;32.03;10.05;;;29.90;99.90;;;;;;1890695;75;21127;-83
2023/05/31 01:23:13;;;;;;;17.67;9.35;;;30.00;99.90;;;;;;1891913;75;21326;-84
2023/05/31 01:26:08;;;;;;;14.05;9.10;;;30.10;99.90;;;;;;1890078;75;21101;-84
2023/05/31 01:28:42;;;;;;;15.80;10.98;;;30.20;99.90;;;;;;1912622;74;21135;-82
2023/05/31 01:31:15;;;;;;;19.50;9.28;;;30.30;99.90;;;;;;1908887;74;21134;-84
2023/05/31 01:33:50;;;;;;;15.35;9.05;;;30.40;99.90;;;;;;1920412;74;21089;-85
2023/05/31 01:36:21;;;;;;;12.95;9.05;;;30.50;99.90;;;;;;1905963;74;21081;-84
2023/05/31 01:38:55;;;;;;;19.73;10.53;;;30.60;99.90;;;;;;1914348;74;21147;-87
2023/05/31 01:41:28;;;;;;;14.85;9.48;;;30.70;99.90;;;;;;1900936;74;21069;-85
2023/05/31 01:44:01;;;;;;;12.15;9.35;;;30.80;99.90;;;;;;1918770;74;21236;-84
2023/05/31 01:46:32;;;;;;;14.73;10.25;;;30.90;99.90;;;;;;1918322;74;21239;-84
2023/05/31 01:49:04;;;;;;;14.23;9.30;;;31.00;99.90;;;;;;1922207;74;21318;-85
2023/05/31 01:51:37;;;;;;;22.75;10.10;;;31.10;99.90;;;;;;1904772;74;21148;-85
2023/05/31 01:54:09;;;;;;;14.90;9.55;;;31.20;99.90;;;;;;1851619;77;21096;-86
2023/05/31 01:56:43;;;;;;;14.58;9.08;;;31.20;99.90;;;;;;1879676;75;21237;-83
2023/05/31 01:59:18;;;;;;;14.35;8.35;;;31.20;99.90;;;;;;1901327;74;21163;-84
2023/05/31 02:01:50;;;;;;;12.65;9.13;;;31.20;99.90;;;;;;1924264;73;21604;-84
2023/05/31 02:04:21;;;;;;;10.10;8.38;;;31.10;99.90;;;;;;1909242;74;21922;-85
2023/05/31 02:06:54;;;;;;;12.25;9.13;;;31.10;99.90;;;;;;1919771;73;21116;-84
2023/05/31 02:09:26;;;;;;;12.85;8.98;;;31.20;99.90;;;;;;1904247;74;21049;-84
2023/05/31 02:11:57;;;;;;;15.05;9.05;;;31.30;99.90;;;;;;1916448;74;21127;-85
2023/05/31 02:14:30;;;;;;;12.80;8.88;;;31.40;99.90;;;;;;1907994;74;21085;-85
2023/05/31 02:17:01;;;;;;;18.65;10.53;;;31.60;99.90;;;;;;1920729;74;21279;-86
2023/05/31 02:19:33;;;;;;;14.80;9.55;;;31.70;99.90;;;;;;1904877;74;21065;-86
2023/05/31 02:22:09;;;;;;;14.80;9.50;;;31.90;99.90;;;;;;1923196;74;21115;-86
2023/05/31 02:24:48;;;;;;;13.65;8.78;;;32.00;99.90;;;;;;1919473;74;21197;-86
2023/05/31 02:27:19;;;;;;;12.53;8.93;;;32.10;99.90;;;;;;1909710;74;21635;-86
2023/05/31 02:29:55;;;;;;;18.98;9.60;;;32.20;99.90;;;;;;1913625;74;21158;-85
2023/05/31 02:32:31;;;;;;;10.85;8.70;;;32.30;99.90;;;;;;1903206;74;21169;-87
2023/05/31 02:35:05;;;;;;;17.40;8.48;;;32.40;99.90;;;;;;1918037;74;21183;-88
2023/05/31 02:37:43;;;;;;;17.42;8.93;;;32.50;99.90;;;;;;1901576;74;21658;-88
2023/05/31 02:40:15;;;;;;;14.45;8.98;;;32.60;99.90;;;;;;1906878;74;21216;-87
2023/05/31 02:42:50;;;;;;;10.70;8.00;;;32.60;99.90;;;;;;1915223;74;21111;-86
2023/05/31 02:45:28;;;;;;;17.87;8.88;;;32.60;99.90;;;;;;1905055;74;21068;-86
2023/05/31 02:48:01;;;;;;;10.98;7.72;;;32.60;99.90;;;;;;1914243;74;21120;-84
2023/05/31 02:50:32;;;;;;;10.63;7.47;;;32.70;99.40;;;;;;1920021;74;21549;-88
2023/05/31 02:53:07;;;;;;;12.93;8.30;;;32.80;99.50;;;;;;1916770;74;21231;-89
2023/05/31 02:55:53;;;;;;;;;;;;;;;;;;;;;
2023/05/31 02:58:33;;;;;;;12.30;8.10;;;32.80;98.90;;;;;;1849671;76;21077;-86
2023/05/31 03:01:15;;;;;;;10.90;7.37;;;32.90;99.30;;;;;;1922554;74;21067;-86
2023/05/31 03:04:00;;;;;;;8.98;7.37;;;32.90;98.70;;;;;;1915225;74;21127;-86
2023/05/31 03:06:43;;;;;;;9.28;6.95;;;32.90;98.90;;;;;;1908524;74;21123;-86
2023/05/31 03:09:28;;;;;;;12.13;7.62;;;32.90;98.20;;;;;;1860831;76;21073;-85
2023/05/31 03:12:04;;;;;;;10.70;7.67;;;32.90;98.90;;;;;;1906145;74;21169;-84
2023/05/31 03:14:39;;;;;;;8.65;6.85;;;33.00;99.30;;;;;;1906411;74;21226;-85
2023/05/31 03:17:23;;;;;;;9.13;7.55;;;33.00;99.00;;;;;;1918688;74;21164;-86
2023/05/31 03:22:42;;;;;;;14.03;8.05;;;33.20;98.40;;;;;;1872931;73;21120;-85
2023/05/31 03:25:48;;;;;;;;;;;;;;;;;;;;;
2023/05/31 03:31:02;;;;;;;;;;;33.60;97.80;;;;;;1895760;74;21133;-85
2023/05/31 03:33:40;;;;;;;11.05;8.28;;;33.70;97.70;;;;;;1903623;74;20406;-84
2023/05/31 03:36:11;;;;;;;10.58;6.97;;;33.70;97.00;;;;;;1908235;74;21510;-84
2023/05/31 03:38:46;;;;;;;;;;;33.70;97.20;;;;;;1909931;74;21162;-85
2023/05/31 03:41:38;;;;;;;11.83;6.85;;;33.70;97.90;;;;;;1902842;74;20264;-85
2023/05/31 03:44:29;;;;;;;13.08;9.15;;;33.60;95.60;;;;;;1909381;74;21124;-84
2023/05/31 03:47:00;;;;;;;24.65;10.63;;;33.80;96.40;;;;;;1910232;74;21096;-86
2023/05/31 03:49:31;;;;;;;11.30;7.50;;;33.90;96.30;;;;;;1903857;74;21134;-86
2023/05/31 03:52:08;;;;;;;8.70;7.58;;;34.10;96.20;;;;;;1909079;74;21121;-87
2023/05/31 03:54:48;;;;;;;8.88;7.50;;;34.20;96.10;;;;;;1905281;74;21108;-84
2023/05/31 03:57:25;;;;;;;9.68;7.72;;;34.30;95.80;;;;;;1905353;74;21222;-88
2023/05/31 04:00:04;;;;;;;10.08;8.43;;;34.30;95.20;;;;;;1905575;74;21127;-87
2023/05/31 04:02:33;;;;;;;10.63;8.28;;;34.30;95.90;;;;;;1905643;74;21732;-86
2023/05/31 04:05:06;;;;;;;9.85;7.58;;;34.40;95.20;;;;;;1906059;74;21586;-88
2023/05/31 04:07:38;;;;;;;9.53;7.55;;;34.30;95.30;;;;;;1909473;74;21077;-85
2023/05/31 04:10:13;;;;;;;12.50;7.40;;;34.20;95.30;;;;;;1867843;76;21163;-89
2023/05/31 04:12:45;;;;;;;8.45;6.67;;;34.00;95.20;;;;;;1904343;74;21148;-86
2023/05/31 04:15:17;;;;;;;7.83;6.17;;;33.90;94.40;;;;;;1851284;76;21135;-84
2023/05/31 04:17:48;;;;;;;9.20;6.90;;;33.80;94.40;;;;;;1909037;74;21147;-83
2023/05/31 04:20:25;;;;;;;9.93;7.08;;;33.80;95.10;;;;;;1907106;74;21189;-84
2023/05/31 04:22:57;;;;;;;8.95;7.12;;;33.90;95.10;;;;;;1905486;74;21516;-83
2023/05/31 04:25:29;;;;;;;12.35;7.90;;;33.80;95.10;;;;;;1909812;74;21105;-85
2023/05/31 04:28:01;;;;;;;20.50;8.75;;;33.80;95.20;;;;;;1904779;74;21195;-84
2023/05/31 04:30:44;;;;;;;17.70;9.05;;;33.80;94.50;;;;;;1910243;74;21198;-84
2023/05/31 04:33:17;;;;;;;18.67;8.83;;;33.80;95.40;;;;;;1908662;74;21179;-88
2023/05/31 04:35:48;;;;;;;10.55;7.10;;;34.00;94.90;;;;;;1909244;74;21100;-87
2023/05/31 04:38:22;;;;;;;10.63;7.53;;;34.10;94.70;;;;;;1908201;74;21136;-85
2023/05/31 04:40:52;;;;;;;10.63;7.97;;;34.10;94.40;;;;;;1906532;74;21115;-86
2023/05/31 04:43:25;;;;;;;9.75;6.83;;;34.10;94.70;;;;;;1906125;74;21178;-85
2023/05/31 04:46:00;;;;;;;9.95;6.83;;;34.10;94.60;;;;;;1906333;74;21709;-85
2023/05/31 04:48:34;;;;;;;8.75;7.17;;;34.20;94.10;;;;;;1909298;74;21109;-84
2023/05/31 04:51:04;;;;;;;13.08;7.28;;;34.30;93.90;;;;;;1913518;74;21085;-85
2023/05/31 04:53:36;;;;;;;9.75;7.03;;;34.40;93.30;;;;;;1850701;77;21210;-84
2023/05/31 04:56:12;;;;;;;13.35;7.58;;;34.40;93.10;;;;;;1913552;74;21519;-86
2023/05/31 04:58:44;;;;;;;12.93;7.80;;;34.40;93.40;;;;;;1902541;74;21208;-83
2023/05/31 05:01:20;;;;;;;10.90;7.03;;;34.40;93.70;;;;;;1909394;74;21063;-86
2023/05/31 05:03:58;;;;;;;9.30;7.33;;;34.40;92.90;;;;;;1908351;74;21162;-86
2023/05/31 05:06:28;;;;;;;9.65;6.87;;;34.40;93.50;;;;;;1903719;74;21120;-83
2023/05/31 05:09:04;;;;;;;9.80;7.35;;;34.30;93.30;;;;;;1902648;74;21141;-85
2023/05/31 05:11:35;;;;;;;9.38;7.28;;;34.10;93.30;;;;;;1856885;77;21088;-85
2023/05/31 05:14:07;;;;;;;11.12;7.20;;;33.90;93.50;;;;;;1904169;74;21132;-85
2023/05/31 05:16:38;;;;;;;12.40;8.25;;;33.80;94.10;;;;;;1908424;74;21101;-85
2023/05/31 05:19:16;;;;;;;14.68;8.75;;;33.80;94.40;;;;;;1910824;74;21061;-84
2023/05/31 05:21:47;;;;;;;11.38;7.55;;;33.70;94.70;;;;;;1908107;74;21206;-83
2023/05/31 05:24:21;;;;;;;10.58;7.28;;;33.80;94.50;;;;;;1898539;74;21213;-84
2023/05/31 05:27:00;;;;;;;8.05;6.72;;;33.70;93.90;;;;;;1910359;74;21117;-84
2023/05/31 05:29:35;;;;;;;11.40;9.23;;;33.70;93.80;;;;;;1903017;74;21170;-81
2023/05/31 05:32:07;;;;;;;9.45;7.05;;;33.60;94.40;;;;;;1907428;74;21173;-83
2023/05/31 05:34:39;;;;;;;10.63;7.00;;;33.60;93.90;;;;;;1909874;74;21156;-82
2023/05/31 05:37:10;;;;;;;8.38;6.78;;;33.70;93.90;;;;;;1906530;74;21846;-85
2023/05/31 05:40:00;;;;;;;8.15;6.40;;;33.80;93.90;;;;;;1909190;74;21202;-85
2023/05/31 05:42:37;;;;;;;8.00;7.15;;;33.90;93.60;;;;;;1904755;74;21587;-85
2023/05/31 05:45:10;;;;;;;8.45;7.22;;;34.10;93.30;;;;;;1903775;74;21136;-85
2023/05/31 05:47:44;;;;;;;7.72;6.90;;;34.20;93.20;;;;;;1919075;74;21067;-85
2023/05/31 05:50:18;;;;;;;11.68;6.72;;;34.40;92.80;;;;;;1903601;74;21159;-85
2023/05/31 05:52:49;;;;;;;9.00;7.05;;;34.50;91.90;;;;;;1902973;74;21137;-84
2023/05/31 05:55:21;;;;;;;11.60;7.58;;;34.60;92.10;;;;;;1907761;74;21178;-85
2023/05/31 05:57:52;;;;;;;9.98;6.58;;;34.60;92.00;;;;;;1903615;74;21002;-84
2023/05/31 06:00:24;;;;;;;10.35;6.45;;;34.60;91.40;;;;;;1903261;74;21120;-85
2023/05/31 06:02:59;;;;;;;8.83;6.65;;;34.60;91.40;;;;;;1902402;74;21120;-86
2023/05/31 06:05:30;;;;;;;7.67;6.30;;;34.50;91.40;;;;;;1911064;74;22280;-85
2023/05/31 06:08:04;;;;;;;8.08;6.60;;;34.50;91.50;;;;;;1903023;74;21135;-85
2023/05/31 06:10:36;;;;;;;8.30;7.05;;;34.50;92.10;;;;;;1912019;74;21131;-85
2023/05/31 06:13:08;;;;;;;14.20;6.65;;;34.60;92.00;;;;;;1906251;74;21143;-86
2023/05/31 06:15:42;;;;;;;10.85;6.47;;;34.70;91.60;;;;;;1906257;74;21140;-84
2023/05/31 06:18:34;;;;;;;7.95;7.12;;;34.80;91.60;;;;;;1910432;74;21089;-87
2023/05/31 06:21:20;;;;;;;10.18;7.30;;;34.90;91.40;;;;;;1875627;74;21247;-85
2023/05/31 06:23:59;;;;;;;13.83;7.67;;;34.80;91.70;;;;;;1902803;74;21145;-87
2023/05/31 06:26:31;;;;;;;8.30;7.40;;;34.70;91.30;;;;;;1904364;74;21237;-85
2023/05/31 06:29:03;;;;;;;10.13;7.90;;;34.70;91.80;;;;;;1902789;74;21061;-84
2023/05/31 06:31:36;;;;;;;9.45;7.30;;;34.70;91.90;;;;;;1914036;74;21178;-85
2023/05/31 06:34:08;;;;;;;9.80;6.70;;;34.70;91.80;;;;;;1902730;74;21134;-85
2023/05/31 06:36:40;;;;;;;8.20;6.45;;;34.60;92.00;;;;;;1906680;74;21215;-86
2023/05/31 06:39:24;;;;;;;8.53;6.28;;;34.60;92.10;;;;;;1906776;74;21069;-88
2023/05/31 06:41:59;;;;;;;11.75;6.42;;;34.60;91.70;;;;;;1900062;74;22372;-85
2023/05/31 06:44:26;;;;;;;9.13;6.67;;;34.50;90.90;;;;;;1898408;74;21293;-85
2023/05/31 06:47:07;;;;;;;10.72;6.97;;;34.50;91.20;;;;;;1905002;74;21205;-85
2023/05/31 06:49:42;;;;;;;7.80;7.00;;;34.30;91.60;;;;;;1902461;74;21217;-84
2023/05/31 06:52:18;;;;;;;10.90;7.08;;;34.20;91.40;;;;;;1908035;74;21122;-85
2023/05/31 06:55:01;;;;;;;7.72;6.65;;;34.20;91.90;;;;;;1904037;74;21061;-86
2023/05/31 06:57:37;;;;;;;10.40;6.87;;;34.20;92.00;;;;;;1912104;74;21100;-84
2023/05/31 07:00:20;;;;;;;10.50;6.83;;;34.20;92.10;;;;;;1908055;74;21077;-84
2023/05/31 07:03:01;;;;;;;8.80;6.78;;;34.30;91.50;;;;;;1897398;74;21658;-87
2023/05/31 07:08:47;;;;;;;10.85;8.53;;;34.50;91.90;;;;;;1794770;77;21148;-76
2023/05/31 07:11:19;;;;;;;12.75;7.60;;;34.50;92.00;;;;;;1891045;74;21120;-75
2023/05/31 07:13:51;;;;;;;9.48;7.37;;;34.50;91.90;;;;;;1902010;74;21077;-75
2023/05/31 07:16:22;;;;;;;9.95;7.30;;;34.50;91.70;;;;;;1905294;74;21124;-73
2023/05/31 07:18:54;;;;;;;10.85;7.78;;;34.50;91.70;;;;;;1909002;74;21357;-75
2023/05/31 07:21:26;;;;;;;15.45;8.05;;;34.40;92.00;;;;;;1903149;74;21637;-74
2023/05/31 07:23:58;;;;;;;8.98;7.40;;;34.40;91.30;;;;;;1908426;74;21267;-75
2023/05/31 07:26:29;;;;;;;10.20;7.25;;;34.40;91.70;;;;;;1904577;74;21224;-75
2023/05/31 07:29:02;;;;;;;16.90;8.90;;;34.30;91.60;;;;;;1902722;74;21120;-75
2023/05/31 07:31:33;;;;;;;11.28;7.62;;;34.30;91.90;;;;;;1901913;74;21164;-77
2023/05/31 07:34:05;;;;;;;8.85;7.05;;;34.30;92.20;;;;;;1921028;74;21199;-75
2023/05/31 07:36:36;;;;;;;14.35;7.28;;;34.20;92.10;;;;;;1909054;74;21207;-75
2023/05/31 07:39:10;;;;;;;15.32;9.83;;;34.20;92.00;;;;;;1917981;73;21607;-75
2023/05/31 07:41:42;;;;;;;16.02;8.65;;;34.30;92.30;;;;;;1916451;73;21186;-76
2023/05/31 07:44:16;;;;;;;8.98;7.22;;;34.30;92.60;;;;;;1904321;74;21501;-76
2023/05/31 07:46:47;;;;;;;17.05;9.08;;;34.30;92.00;;;;;;1915030;74;21152;-75
2023/05/31 07:49:18;;;;;;;7.62;6.83;;;34.40;91.40;;;;;;1908997;74;21160;-74
2023/05/31 07:52:02;;;;;;;12.30;7.17;;;34.50;90.90;;;;;;1911487;73;21104;-75
2023/05/31 07:54:40;;;;;;;7.20;6.37;;;34.50;91.50;;;;;;1902160;74;21235;-75
2023/05/31 07:57:27;;;;;;;9.60;6.37;;;34.60;90.80;;;;;;1914089;74;21198;-75
2023/05/31 08:00:19;;;;;;;9.15;6.08;;;34.60;90.10;;;;;;1901430;74;21168;-73
2023/05/31 08:02:50;;;;;;;10.25;6.25;;;34.60;89.60;;;;;;1919601;74;21189;-75
2023/05/31 08:05:22;;;;;;;11.65;6.30;;;34.60;90.30;;;;;;1904832;74;21547;-74
2023/05/31 08:07:54;;;;;;;12.43;6.35;;;34.60;89.20;;;;;;1918535;74;21119;-74
2023/05/31 08:10:25;;;;;;;8.90;5.92;;;34.70;89.20;;;;;;1907310;74;21238;-74
2023/05/31 08:12:58;;;;;;;8.58;5.65;;;34.70;89.20;;;;;;1913402;74;21672;-75
2023/05/31 08:15:29;;;;;;;7.25;5.85;;;34.60;88.80;;;;;;1921957;74;21154;-75
2023/05/31 08:18:00;;;;;;;12.33;6.50;;;34.50;89.60;;;;;;1908801;74;21140;-73
2023/05/31 08:20:36;;;;;;;12.85;7.28;;;34.50;89.00;;;;;;1913961;73;21585;-75
2023/05/31 08:23:10;;;;;;;11.97;5.97;;;34.40;90.30;;;;;;1901748;74;22185;-74
2023/05/31 08:25:45;;;;;;;9.38;6.40;;;34.40;88.50;;;;;;1913452;74;21134;-74
2023/05/31 08:28:16;;;;;;;6.83;5.80;;;34.40;89.50;;;;;;1907016;74;21211;-75
2023/05/31 08:30:55;;;;;;;8.85;6.15;;;34.40;90.10;;;;;;1919110;74;21677;-75
2023/05/31 08:33:34;;;;;;;20.70;9.43;;;34.40;90.20;;;;;;1902677;74;21190;-73
2023/05/31 08:36:22;;;;;;;11.15;7.37;;;34.40;90.70;;;;;;1912448;74;21094;-75
2023/05/31 08:38:58;;;;;;;20.27;8.20;;;34.40;90.40;;;;;;1901232;74;21693;-76
2023/05/31 08:41:33;;;;;;;11.60;6.97;;;34.30;90.50;;;;;;1914405;73;22007;-75
2023/05/31 08:44:08;;;;;;;9.55;7.03;;;34.30;90.70;;;;;;1909878;74;21146;-75
2023/05/31 08:46:40;;;;;;;9.15;6.53;;;34.20;90.20;;;;;;1900808;74;21112;-74
2023/05/31 08:49:21;;;;;;;16.77;7.03;;;34.20;90.30;;;;;;1915329;74;22052;-76
2023/05/31 08:51:56;;;;;;;23.83;10.13;;;34.20;90.50;;;;;;1903360;74;21764;-74
2023/05/31 08:54:35;;;;;;;13.25;8.73;;;34.20;90.40;;;;;;1910822;74;21273;-75
2023/05/31 08:57:09;;;;;;;23.12;13.78;;;34.30;90.00;;;;;;1907838;74;21147;-76
2023/05/31 08:59:45;;;;;;;10.38;7.08;;;34.30;90.60;;;;;;1904395;74;21150;-77
2023/05/31 09:02:36;;;;;;;9.15;7.30;;;34.20;90.40;;;;;;1898306;74;21298;-75
2023/05/31 09:05:11;;;;;;;9.30;6.70;;;34.20;90.50;;;;;;1913610;74;21211;-76
2023/05/31 09:07:42;;;;;;;11.28;7.95;;;34.20;90.50;;;;;;1902347;74;21211;-75
2023/05/31 09:10:15;;;;;;;11.18;7.45;;;34.20;91.40;;;;;;1904732;74;21108;-77
2023/05/31 09:12:46;;;;;;;22.00;8.30;;;34.20;91.10;;;;;;1899083;74;21126;-75
2023/05/31 09:15:25;;;;;;;15.63;9.70;;;34.20;90.80;;;;;;1913413;74;21076;-75
2023/05/31 09:17:58;;;;;;;15.32;9.28;;;34.20;91.00;;;;;;1909027;74;21104;-76
2023/05/31 09:20:33;;;;;;;24.67;10.73;;;34.20;91.40;;;;;;1895431;74;21667;-74
2023/05/31 09:23:16;;;;;;;27.35;11.10;;;34.20;91.50;;;;;;1922530;74;21375;-73
2023/05/31 09:25:52;;;;;;;21.73;11.45;;;34.20;91.20;;;;;;1905175;74;21093;-75
2023/05/31 09:28:27;;;;;;;10.85;7.53;;;34.20;91.20;;;;;;1910385;74;21135;-74
2023/05/31 09:31:07;;;;;;;12.45;7.42;;;34.20;91.10;;;;;;1849238;76;21663;-75
2023/05/31 09:33:43;;;;;;;10.58;7.47;;;34.20;90.90;;;;;;1857730;75;21128;-75
2023/05/31 09:36:13;;;;;;;;;;;34.20;90.60;;;;;;1918460;74;21205;-75
2023/05/31 09:38:48;;;;;;;15.53;7.83;;;34.20;90.80;;;;;;1917498;74;20552;-76
2023/05/31 09:41:21;;;;;;;15.05;8.55;;;34.30;90.70;;;;;;1922706;74;21140;-74
2023/05/31 09:43:53;;;;;;;14.07;8.50;;;34.30;90.40;;;;;;1926409;74;21612;-74
2023/05/31 09:46:27;;;;;;;9.75;7.65;;;34.30;90.50;;;;;;1913993;73;21186;-73
2023/05/31 09:49:09;;;;;;;17.30;12.25;;;34.30;90.70;;;;;;1923746;74;21073;-74
2023/05/31 09:51:40;;;;;;;20.52;10.60;;;34.30;90.90;;;;;;1921349;74;21115;-74
2023/05/31 09:54:31;;;;;;;11.03;8.75;;;34.30;91.00;;;;;;1908435;74;21172;-75
2023/05/31 09:57:11;;;;;;;14.93;8.85;;;34.40;90.90;;;;;;1911983;73;21076;-74
2023/05/31 10:00:00;;;;;;;9.43;7.45;;;34.40;91.20;;;;;;1916806;74;21069;-73
2023/05/31 10:02:36;;;;;;;8.05;6.80;;;34.40;90.90;;;;;;1915157;74;21147;-73
2023/05/31 10:05:09;;;;;;;9.43;6.97;;;34.40;91.30;;;;;;1915799;74;21072;-74
2023/05/31 10:07:41;;;;;;;14.50;7.53;;;34.30;91.10;;;;;;1924041;73;21168;-73
2023/05/31 10:10:14;;;;;;;13.50;8.08;;;34.30;91.00;;;;;;1917291;74;21187;-73
2023/05/31 10:12:54;;;;;;;10.05;7.78;;;34.30;90.80;;;;;;1912517;74;21586;-73
2023/05/31 10:15:26;;;;;;;11.28;7.75;;;34.30;90.80;;;;;;1922704;74;21096;-74
2023/05/31 10:18:03;;;;;;;11.70;8.48;;;34.30;91.20;;;;;;1914801;74;21591;-74
2023/05/31 10:20:39;;;;;;;12.93;8.70;;;34.20;91.90;;;;;;1918909;74;21108;-73
2023/05/31 10:23:11;;;;;;;;;;;34.20;92.30;;;;;;1922195;74;21645;-72
2023/05/31 10:26:05;;;;;;;16.93;8.15;;;34.00;92.20;;;;;;1914206;74;20120;-74
2023/05/31 10:28:37;;;;;;;10.93;9.50;;;34.00;92.30;;;;;;1910117;74;21162;-74
2023/05/31 10:31:11;;;;;;;15.13;10.85;;;33.80;92.40;;;;;;1923464;74;21222;-72
2023/05/31 10:33:45;;;;;;;14.90;9.68;;;33.80;92.80;;;;;;1917472;74;21163;-73
2023/05/31 10:36:24;;;;;;;17.65;12.05;;;33.60;92.90;;;;;;1906046;74;21072;-73
2023/05/31 10:39:13;;;;;;;21.97;16.52;;;33.50;93.20;;;;;;1901622;74;21206;-73
2023/05/31 10:41:48;;;;;;;13.13;10.63;;;33.50;93.30;;;;;;1905385;74;21696;-73
2023/05/31 10:44:21;;;;;;;11.33;7.65;;;33.50;93.20;;;;;;1905764;74;21084;-73
2023/05/31 10:46:55;;;;;;;15.43;7.95;;;33.40;93.30;;;;;;1907253;74;21125;-73
2023/05/31 10:49:29;;;;;;;10.45;7.95;;;33.30;93.30;;;;;;1901941;74;21129;-73
2023/05/31 10:52:08;;;;;;;13.00;9.45;;;33.20;93.40;;;;;;1901569;74;21124;-74
2023/05/31 10:54:41;;;;;;;12.90;7.78;;;33.20;93.70;;;;;;1903072;74;21619;-73
2023/05/31 10:57:15;;;;;;;11.28;7.47;;;33.20;93.70;;;;;;1902844;74;21116;-72
2023/05/31 10:59:49;;;;;;;13.68;8.50;;;33.20;93.80;;;;;;1907137;74;21629;-73
2023/05/31 11:02:20;;;;;;;11.65;8.45;;;33.10;93.90;;;;;;1903630;74;21092;-74
2023/05/31 11:04:52;;;;;;;10.23;7.67;;;33.00;93.70;;;;;;1903533;74;21170;-74
2023/05/31 11:07:25;;;;;;;11.10;8.25;;;33.00;93.80;;;;;;1906790;74;21131;-72
2023/05/31 11:10:03;;;;;;;13.00;8.88;;;33.00;94.00;;;;;;1906780;74;21104;-72
2023/05/31 11:12:36;;;;;;;15.10;11.20;;;33.00;94.10;;;;;;1901912;74;21855;-74
2023/05/31 11:15:19;;;;;;;13.85;9.45;;;32.90;94.00;;;;;;1902952;74;21085;-73
2023/05/31 11:17:59;;;;;;;15.13;12.20;;;32.90;94.10;;;;;;1902392;74;21210;-73
2023/05/31 11:20:52;;;;;;;15.83;9.23;;;32.90;94.20;;;;;;1902346;74;21156;-73
2023/05/31 11:23:31;;;;;;;14.38;9.28;;;32.90;94.20;;;;;;1890296;75;21136;-74
2023/05/31 11:26:20;;;;;;;10.53;8.40;;;32.80;94.30;;;;;;1897798;74;21158;-75
2023/05/31 11:29:06;;;;;;;11.70;8.28;;;32.90;94.20;;;;;;1904389;74;21104;-75
2023/05/31 11:31:55;;;;;;;11.15;8.48;;;32.90;94.20;;;;;;1903539;74;21697;-74
2023/05/31 11:34:33;;;;;;;10.50;8.43;;;32.90;94.00;;;;;;1888822;74;21228;-82
2023/05/31 11:37:36;;;;;;;13.83;8.55;;;32.90;94.20;;;;;;1826458;77;21287;-82
2023/05/31 11:40:15;;;;;;;13.28;8.80;;;32.80;94.10;;;;;;1849565;76;21720;-82
2023/05/31 11:42:47;;;;;;;15.60;9.15;;;32.80;93.90;;;;;;1809912;79;21148;-82
2023/05/31 11:45:26;;;;;;;15.10;9.28;;;32.80;94.00;;;;;;1819722;77;21156;-82
2023/05/31 11:48:02;;;;;;;12.58;9.00;;;32.80;94.10;;;;;;1836443;77;21171;-82
2023/05/31 11:50:32;;;;;;;;;;;32.80;94.20;;;;;;1841031;77;21594;-81
2023/05/31 11:53:04;;;;;;;14.10;9.88;;;32.80;94.30;;;;;;1832416;77;20416;-82
2023/05/31 11:55:36;;;;;;;12.15;9.53;;;32.70;94.20;;;;;;1841835;77;21152;-82
2023/05/31 11:58:08;;;;;;;12.80;8.43;;;32.70;94.30;;;;;;1836067;76;21275;-84
2023/05/31 12:00:46;;;;;;;11.03;8.20;;;32.70;93.90;;;;;;1829208;77;21168;-73
2023/05/31 12:03:20;;;;;;;12.98;8.40;;;32.70;93.70;;;;;;1827702;77;21754;-74
2023/05/31 12:05:59;;;;;;;18.62;8.53;;;32.60;93.80;;;;;;1824220;77;21163;-73
2023/05/31 12:08:30;;;;;;;13.38;9.20;;;32.60;93.70;;;;;;1845614;77;21160;-73
2023/05/31 12:11:05;;;;;;;12.58;8.28;;;32.50;93.80;;;;;;1819591;77;21152;-74
2023/05/31 12:13:42;;;;;;;11.57;8.45;;;32.50;93.80;;;;;;1839929;77;21614;-74
2023/05/31 12:16:17;;;;;;;12.13;9.05;;;32.40;93.90;;;;;;1883456;74;21193;-74
2023/05/31 12:18:54;;;;;;;13.30;8.20;;;32.40;93.90;;;;;;1887530;75;21191;-75
2023/05/31 12:21:27;;;;;;;13.13;8.80;;;32.40;94.00;;;;;;1893151;74;21211;-75
2023/05/31 12:23:59;;;;;;;14.45;9.95;;;32.40;94.20;;;;;;1869446;74;21641;-74
2023/05/31 12:26:33;;;;;;;15.90;9.78;;;32.30;94.20;;;;;;1889914;74;21160;-75
2023/05/31 12:29:04;;;;;;;13.15;9.33;;;32.30;94.30;;;;;;1883077;74;21065;-73
2023/05/31 12:31:39;;;;;;;12.60;9.10;;;32.30;94.40;;;;;;1884943;74;21175;-74
2023/05/31 12:34:11;;;;;;;11.18;8.78;;;32.30;94.50;;;;;;1876798;74;21638;-73
2023/05/31 12:36:53;;;;;;;11.63;8.88;;;32.20;94.60;;;;;;1918516;73;21147;-73
2023/05/31 12:39:25;;;;;;;15.10;10.10;;;32.20;94.80;;;;;;1922985;74;21179;-75
2023/05/31 12:42:05;;;;;;;14.85;9.30;;;32.10;94.90;;;;;;1901338;74;21076;-74
2023/05/31 12:44:38;;;;;;;14.40;9.98;;;32.10;95.20;;;;;;1926241;74;21197;-74
2023/05/31 12:47:10;;;;;;;14.18;9.98;;;32.00;95.40;;;;;;1901280;74;21249;-73
2023/05/31 12:49:43;;;;;;;16.45;10.35;;;32.00;95.50;;;;;;1917593;74;21148;-73
2023/05/31 12:52:19;;;;;;;14.95;11.00;;;32.00;95.80;;;;;;1898887;74;21151;-74
2023/05/31 12:54:51;;;;;;;14.33;10.98;;;31.90;95.90;;;;;;1916467;73;21131;-74
2023/05/31 12:57:23;;;;;;;15.38;11.20;;;31.90;96.10;;;;;;1901006;74;21133;-74
2023/05/31 13:00:03;;;;;;;15.98;11.20;;;31.90;96.40;;;;;;1913707;73;21119;-75
2023/05/31 13:02:49;;;;;;;;;;;31.80;96.50;;;;;;1918865;74;21185;-73
2023/05/31 13:05:32;;;;;;;13.40;10.68;;;31.80;96.20;;;;;;1899279;74;20221;-75
2023/05/31 13:08:21;;;;;;;16.02;11.05;;;31.80;96.70;;;;;;1912556;73;21163;-73
2023/05/31 13:10:54;;;;;;;12.98;9.78;;;31.80;96.90;;;;;;1912216;74;21114;-73
2023/05/31 13:13:27;;;;;;;12.63;9.63;;;31.70;96.80;;;;;;1901418;74;21182;-74
2023/05/31 13:15:58;;;;;;;15.78;10.70;;;31.70;97.10;;;;;;1923109;73;21157;-73
2023/05/31 13:18:43;;;;;;;13.43;9.60;;;31.70;97.30;;;;;;1903257;74;21222;-74
2023/05/31 13:21:17;;;;;;;13.03;9.98;;;31.60;97.30;;;;;;1896493;74;21207;-73
2023/05/31 13:23:57;;;;;;;13.40;10.18;;;31.60;97.30;;;;;;1905674;74;21700;-75
2023/05/31 13:26:34;;;;;;;15.60;10.78;;;31.60;97.40;;;;;;1898579;74;21131;-75
2023/05/31 13:29:08;;;;;;;14.43;10.20;;;31.60;97.60;;;;;;1912453;74;21126;-73
2023/05/31 13:31:43;;;;;;;16.32;10.68;;;31.60;97.70;;;;;;1918810;74;21439;-74